RDU weather

Raleigh Durham International Airport
Raleigh/Durham, North Carolina, United States

Public forecast

Using degrees Fahrenheit for public forecast. Weather courtesy of forecast.io.

Current aviation weather report (METAR) for Raleigh Durham International Airport

Retrieved 2019/10/21 02:51 UTC (42 minutes ago):

KRDU 210251Z VRB05KT 10SM OVC014 16/14 A2996 RMK AO2 SLP144 T01610139 51022

Aviation forecast (TAF) for Raleigh Durham International Airport

Retrieved 2019-10-21 00:28 UTC (3 hours ago):

TAF KRDU 202326Z 2100/2124 VRB06KT P6SM BKN010 OVC014 FM210300 01003KT P6SM SCT025 FM210900 00000KT 4SM BR BKN002 FM211000 00000KT 1/2SM FG BKN002 FM211400 08005KT P6SM SCT025 BKN250